createdAt,value
2022-08-30T00:01:47.037Z,101080.81
2022-08-30T00:04:50.854Z,101079.53
2022-08-30T00:07:53.335Z,101076.09
2022-08-30T00:10:56.128Z,101080.47
2022-08-30T00:13:59.964Z,101070.75
2022-08-30T00:17:04.021Z,101070.88
2022-08-30T00:20:10.580Z,101065.22
2022-08-30T00:23:13.697Z,101064.81
2022-08-30T00:26:16.281Z,101068.63
2022-08-30T00:30:01.439Z,101075.13
2022-08-30T00:33:14.662Z,101074.94
2022-08-30T00:36:29.694Z,101083.91
2022-08-30T00:39:47.089Z,101075.47
2022-08-30T00:42:50.674Z,101083.13
2022-08-30T00:46:18.655Z,101085.72
2022-08-30T00:53:36.852Z,101088.41
2022-08-30T00:57:02.324Z,101088.16
2022-08-30T01:00:33.892Z,101088.78
2022-08-30T01:03:41.737Z,101091.25
2022-08-30T01:07:00.009Z,101091.50
2022-08-30T01:10:24.318Z,101091.06
2022-08-30T01:13:29.913Z,101089.88
2022-08-30T01:17:08.888Z,101091.41
2022-08-30T01:20:46.256Z,101087.78
2022-08-30T01:24:41.988Z,101088.63
2022-08-30T01:28:06.175Z,101091.41
2022-08-30T01:31:22.036Z,101093.13
2022-08-30T01:35:03.148Z,101096.75
2022-08-30T01:39:08.548Z,101104.56
2022-08-30T01:50:25.092Z,101107.53
2022-08-30T01:55:09.534Z,101102.19
2022-08-30T02:02:50.842Z,101103.28
2022-08-30T02:06:18.098Z,101106.69
2022-08-30T02:09:35.540Z,101105.09
2022-08-30T02:12:58.461Z,101094.41
2022-08-30T02:23:39.107Z,101087.03
2022-08-30T02:27:49.231Z,101093.75
2022-08-30T02:35:21.978Z,101086.56
2022-08-30T02:38:25.205Z,101081.88
2022-08-30T02:41:46.069Z,101088.72
2022-08-30T02:45:33.019Z,101077.72
2022-08-30T02:48:48.031Z,101081.97
2022-08-30T02:52:10.812Z,101081.38
2022-08-30T02:55:36.723Z,101078.91
2022-08-30T02:58:40.053Z,101086.28
2022-08-30T03:01:42.703Z,101083.41
2022-08-30T03:04:46.598Z,101089.28
2022-08-30T03:07:49.088Z,101089.16
2022-08-30T03:10:51.599Z,101089.06
2022-08-30T03:13:54.158Z,101101.34
2022-08-30T03:16:56.665Z,101097.63
2022-08-30T03:20:02.218Z,101105.28
2022-08-30T03:23:04.854Z,101106.13
2022-08-30T03:26:07.711Z,101103.56
2022-08-30T03:29:10.195Z,101105.50
2022-08-30T03:32:14.429Z,101106.38
2022-08-30T03:35:19.554Z,101111.47
2022-08-30T03:38:22.232Z,101114.25
2022-08-30T03:41:25.207Z,101108.81
2022-08-30T03:44:27.944Z,101113.19
2022-08-30T03:47:31.004Z,101111.06
2022-08-30T03:50:35.314Z,101108.72
2022-08-30T03:53:37.922Z,101110.84
2022-08-30T03:56:40.664Z,101115.13
2022-08-30T03:59:49.416Z,101116.63
2022-08-30T04:02:51.988Z,101112.25
2022-08-30T04:05:58.980Z,101112.13
2022-08-30T04:09:03.413Z,101119.41
2022-08-30T04:12:07.829Z,101116.63
2022-08-30T04:15:12.638Z,101121.97
2022-08-30T04:18:15.576Z,101121.84
2022-08-30T04:21:19.895Z,101121.97
2022-08-30T04:24:22.440Z,101112.75
2022-08-30T04:27:25.094Z,101117.25
2022-08-30T04:30:28.122Z,101117.25
2022-08-30T04:33:30.575Z,101116.41
2022-08-30T04:36:38.806Z,101126.97
2022-08-30T04:39:43.691Z,101130.72
2022-08-30T04:42:46.214Z,101127.72
2022-08-30T04:45:49.764Z,101135.25
2022-08-30T04:48:52.291Z,101140.19
2022-08-30T04:51:56.219Z,101149.94
2022-08-30T04:54:59.712Z,101155.28
2022-08-30T04:58:02.263Z,101157.19
2022-08-30T05:01:05.640Z,101151.66
2022-08-30T05:04:12.483Z,101164.13
2022-08-30T05:07:16.375Z,101162.31
2022-08-30T05:10:19.047Z,101160.09
2022-08-30T05:13:35.408Z,101162.44
2022-08-30T05:16:47.815Z,101165.53
2022-08-30T05:20:02.504Z,101168.06
2022-08-30T05:23:08.728Z,101167.84
2022-08-30T05:26:13.363Z,101174.44
2022-08-30T05:29:15.810Z,101170.50
2022-08-30T05:32:19.054Z,101168.72
2022-08-30T05:35:25.551Z,101162.31
2022-08-30T05:38:30.912Z,101162.63
2022-08-30T05:41:33.396Z,101165.03
2022-08-30T05:44:36.213Z,101166.97
2022-08-30T05:47:39.290Z,101165.25
2022-08-30T05:50:41.740Z,101163.59
2022-08-30T05:53:46.644Z,101168.31
2022-08-30T05:56:49.141Z,101160.75
2022-08-30T05:59:51.616Z,101161.69
2022-08-30T06:02:55.370Z,101158.81
2022-08-30T06:06:02.077Z,101162.84
2022-08-30T06:09:07.316Z,101163.81
2022-08-30T06:12:09.901Z,101168.50
2022-08-30T06:15:13.077Z,101164.97
2022-08-30T06:18:15.885Z,101171.81
2022-08-30T06:21:18.936Z,101176.38
2022-08-30T06:24:35.645Z,101179.66
2022-08-30T06:27:45.606Z,101180.97
2022-08-30T06:30:48.187Z,101185.94
2022-08-30T06:33:51.580Z,101193.59
2022-08-30T06:36:58.134Z,101202.66
2022-08-30T06:40:03.358Z,101203.28
2022-08-30T06:43:05.841Z,101199.53
2022-08-30T06:46:11.396Z,101195.41
2022-08-30T06:49:14.006Z,101201.34
2022-08-30T06:52:16.721Z,101192.50
2022-08-30T06:55:23.247Z,101197.94
2022-08-30T06:58:25.760Z,101208.94
2022-08-30T07:01:30.000Z,101209.84
2022-08-30T07:04:32.919Z,101204.00
2022-08-30T07:07:41.165Z,101205.69
2022-08-30T07:10:45.412Z,101215.56
2022-08-30T07:13:47.883Z,101214.72
2022-08-30T07:16:51.257Z,101223.56
2022-08-30T07:19:53.899Z,101228.31
2022-08-30T07:22:56.719Z,101230.84
2022-08-30T07:26:05.134Z,101228.03
2022-08-30T07:29:11.557Z,101231.34
2022-08-30T07:32:14.070Z,101238.06
2022-08-30T07:35:17.050Z,101238.53
2022-08-30T07:38:19.558Z,101235.50
2022-08-30T07:41:26.502Z,101252.03
2022-08-30T07:44:32.215Z,101247.50
2022-08-30T07:47:36.260Z,101250.31
2022-08-30T07:50:40.524Z,101249.91
2022-08-30T07:53:44.141Z,101248.56
2022-08-30T07:56:48.610Z,101249.53
2022-08-30T07:59:52.185Z,101247.78
2022-08-30T08:02:55.289Z,101247.50
2022-08-30T08:05:58.208Z,101256.47
2022-08-30T08:09:02.328Z,101251.66
2022-08-30T08:12:07.750Z,101257.72
2022-08-30T08:15:11.181Z,101258.28
2022-08-30T08:18:13.823Z,101270.47
2022-08-30T08:21:16.306Z,101265.16
2022-08-30T08:24:18.783Z,101262.47
2022-08-30T08:27:24.704Z,101263.28
2022-08-30T08:30:27.199Z,101249.00
2022-08-30T08:33:29.806Z,101259.19
2022-08-30T08:36:33.198Z,101263.22
2022-08-30T08:39:35.724Z,101272.56
2022-08-30T08:43:01.606Z,101260.41
2022-08-30T08:46:12.505Z,101261.63
2022-08-30T08:49:17.381Z,101258.97
2022-08-30T08:52:44.300Z,101260.19
2022-08-30T08:55:51.264Z,101267.03
2022-08-30T08:58:57.413Z,101275.66
2022-08-30T09:02:02.953Z,101276.03
2022-08-30T09:05:06.443Z,101284.41
2022-08-30T09:08:14.048Z,101278.34
2022-08-30T09:11:26.246Z,101280.28
2022-08-30T09:14:34.304Z,101277.81
2022-08-30T09:17:52.064Z,101281.19
2022-08-30T09:20:55.622Z,101272.41
2022-08-30T09:24:03.385Z,101269.94
2022-08-30T09:27:24.176Z,101281.06
2022-08-30T09:30:30.383Z,101283.81
2022-08-30T09:33:33.066Z,101281.53
2022-08-30T09:36:45.287Z,101283.34
2022-08-30T09:39:51.018Z,101277.50
2022-08-30T09:43:03.095Z,101270.94
2022-08-30T09:46:10.687Z,101267.91
2022-08-30T09:49:31.922Z,101262.28
2022-08-30T09:52:44.550Z,101263.44
2022-08-30T09:56:02.557Z,101268.25
2022-08-30T10:03:35.839Z,101264.34
2022-08-30T10:07:00.249Z,101273.41
2022-08-30T10:10:12.334Z,101276.00
2022-08-30T10:13:54.515Z,101268.34
2022-08-30T10:17:18.490Z,101260.44
2022-08-30T10:20:56.632Z,101267.41
2022-08-30T10:24:32.803Z,101271.63
2022-08-30T10:27:45.010Z,101270.94
2022-08-30T10:31:05.680Z,101258.91
2022-08-30T10:36:18.254Z,101275.09
2022-08-30T10:38:30.076Z,101267.53
2022-08-30T10:41:44.444Z,101266.22
2022-08-30T10:44:56.504Z,101264.06
2022-08-30T10:48:10.623Z,101268.38
2022-08-30T10:51:29.214Z,101274.81
2022-08-30T11:07:55.173Z,101280.03
2022-08-30T11:11:22.806Z,101283.00
2022-08-30T11:14:28.539Z,101283.28
2022-08-30T11:17:36.340Z,101283.56
2022-08-30T11:20:57.420Z,101285.47
2022-08-30T11:24:11.987Z,101278.66
2022-08-30T11:27:58.587Z,101283.25
2022-08-30T11:31:12.320Z,101288.63
2022-08-30T11:34:59.734Z,101286.34
2022-08-30T11:38:02.638Z,101287.13
2022-08-30T11:41:31.180Z,101286.47
2022-08-30T11:44:37.180Z,101283.34
2022-08-30T11:47:44.568Z,101278.50
2022-08-30T11:50:54.745Z,101278.56
2022-08-30T11:54:09.698Z,101282.22
2022-08-30T11:57:26.350Z,101281.97
2022-08-30T12:00:34.723Z,101277.53
2022-08-30T12:03:37.931Z,101275.75
2022-08-30T12:06:52.916Z,101276.75
2022-08-30T12:10:32.181Z,101276.94
2022-08-30T12:13:54.345Z,101280.19
2022-08-30T12:17:17.838Z,101272.03
2022-08-30T12:20:25.045Z,101270.97
2022-08-30T12:23:36.840Z,101276.59
2022-08-30T12:26:48.743Z,101274.41
2022-08-30T12:29:56.203Z,101270.97
2022-08-30T12:33:02.093Z,101266.63
2022-08-30T12:36:05.739Z,101280.75
2022-08-30T12:39:13.011Z,101270.19
2022-08-30T12:42:22.373Z,101263.03
2022-08-30T12:45:30.187Z,101265.66
2022-08-30T12:48:36.356Z,101268.59
2022-08-30T12:51:42.514Z,101266.13
2022-08-30T12:54:45.791Z,101259.28
2022-08-30T12:58:00.803Z,101256.78
2022-08-30T13:01:27.210Z,101250.97
2022-08-30T13:04:29.780Z,101250.69
2022-08-30T13:07:35.425Z,101247.22
2022-08-30T13:10:38.249Z,101250.03
2022-08-30T13:13:52.200Z,101241.16
2022-08-30T13:17:11.762Z,101243.75
2022-08-30T13:20:28.296Z,101230.84
2022-08-30T13:23:30.743Z,101236.06
2022-08-30T13:26:36.045Z,101236.28
2022-08-30T13:29:40.671Z,101236.13
2022-08-30T13:32:46.062Z,101236.25
2022-08-30T13:35:48.553Z,101235.16
2022-08-30T13:38:51.427Z,101226.75
2022-08-30T13:41:55.310Z,101217.28
2022-08-30T13:48:44.212Z,101227.13
2022-08-30T13:52:09.388Z,101220.06
2022-08-30T13:55:12.379Z,101211.00
2022-08-30T13:58:16.605Z,101209.53
2022-08-30T14:01:21.068Z,101199.38
2022-08-30T14:04:24.896Z,101203.09
2022-08-30T14:07:28.269Z,101204.28
2022-08-30T14:10:37.759Z,101209.53
2022-08-30T14:17:13.629Z,101208.66
2022-08-30T14:20:17.867Z,101210.50
2022-08-30T14:23:22.367Z,101216.75
2022-08-30T14:26:33.069Z,101206.97
2022-08-30T14:29:36.157Z,101208.78
2022-08-30T14:32:38.647Z,101201.84
2022-08-30T14:35:42.536Z,101216.00
2022-08-30T14:38:47.240Z,101215.81
2022-08-30T14:41:54.264Z,101219.88
2022-08-30T14:44:57.840Z,101208.66
2022-08-30T14:48:02.684Z,101205.66
2022-08-30T14:51:15.286Z,101210.94
2022-08-30T14:54:20.068Z,101207.53
2022-08-30T14:57:22.729Z,101207.41
2022-08-30T15:00:25.773Z,101201.47
2022-08-30T15:03:28.293Z,101208.59
2022-08-30T15:06:32.374Z,101211.50
2022-08-30T15:09:35.038Z,101205.38
2022-08-30T15:12:37.566Z,101202.25
2022-08-30T15:15:43.461Z,101211.16
2022-08-30T15:18:46.359Z,101209.75
2022-08-30T15:21:50.398Z,101208.13
2022-08-30T15:24:52.851Z,101203.22
2022-08-30T15:27:55.351Z,101201.97
2022-08-30T15:30:58.434Z,101206.91
2022-08-30T15:34:01.554Z,101199.91
2022-08-30T15:37:07.672Z,101208.94
2022-08-30T15:40:11.585Z,101208.84
2022-08-30T15:43:15.510Z,101203.28
2022-08-30T15:46:22.467Z,101212.66
2022-08-30T15:49:25.685Z,101198.84
2022-08-30T15:52:30.936Z,101193.25
2022-08-30T15:55:33.616Z,101199.66
2022-08-30T15:58:36.698Z,101206.63
2022-08-30T16:01:39.241Z,101189.03
2022-08-30T16:04:41.915Z,101191.38
2022-08-30T16:07:46.687Z,101197.72
2022-08-30T16:10:49.284Z,101193.63
2022-08-30T16:13:56.427Z,101196.94
2022-08-30T16:16:59.500Z,101201.59
2022-08-30T16:20:02.153Z,101197.84
2022-08-30T16:23:06.029Z,101195.09
2022-08-30T16:26:09.702Z,101196.22
2022-08-30T16:29:15.806Z,101191.66
2022-08-30T16:32:19.170Z,101192.56
2022-08-30T16:35:22.142Z,101194.63
2022-08-30T16:38:27.625Z,101197.78
2022-08-30T16:41:32.370Z,101187.34
2022-08-30T16:44:35.226Z,101193.66
2022-08-30T16:47:38.359Z,101195.16
2022-08-30T16:50:44.154Z,101193.38
2022-08-30T16:53:48.870Z,101187.56
2022-08-30T16:56:51.753Z,101191.72
2022-08-30T16:59:54.259Z,101185.59
2022-08-30T17:02:57.794Z,101192.09
2022-08-30T17:06:00.333Z,101190.97
2022-08-30T17:09:04.841Z,101189.41
2022-08-30T17:12:07.959Z,101188.63
2022-08-30T17:15:12.662Z,101193.78
2022-08-30T17:18:16.271Z,101187.19
2022-08-30T17:21:19.133Z,101192.16
2022-08-30T17:24:23.058Z,101193.88
2022-08-30T17:27:27.671Z,101190.72
2022-08-30T17:30:30.132Z,101185.84
2022-08-30T17:33:32.693Z,101190.59
2022-08-30T17:36:37.122Z,101192.91
2022-08-30T17:39:41.002Z,101193.34
2022-08-30T17:42:44.649Z,101189.66
2022-08-30T17:45:47.207Z,101189.88
2022-08-30T17:48:57.593Z,101195.38
2022-08-30T17:52:04.224Z,101195.91
2022-08-30T17:55:10.380Z,101195.94
2022-08-30T17:58:12.836Z,101199.28
2022-08-30T18:01:16.185Z,101210.75
2022-08-30T18:04:20.802Z,101213.19
2022-08-30T18:07:23.439Z,101216.59
2022-08-30T18:10:33.030Z,101214.44
2022-08-30T18:13:38.073Z,101218.94
2022-08-30T18:16:45.654Z,101233.88
2022-08-30T18:19:56.247Z,101233.59
2022-08-30T18:23:00.290Z,101229.59
2022-08-30T18:26:04.329Z,101231.34
2022-08-30T18:29:06.886Z,101229.69
2022-08-30T18:32:09.349Z,101231.16
2022-08-30T18:35:12.178Z,101237.75
2022-08-30T18:38:14.751Z,101241.22
2022-08-30T18:41:18.743Z,101235.91
2022-08-30T18:44:28.868Z,101244.66
2022-08-30T18:47:32.421Z,101247.81
2022-08-30T18:50:35.576Z,101248.84
2022-08-30T18:53:39.480Z,101250.47
2022-08-30T18:56:45.099Z,101252.09
2022-08-30T18:59:48.349Z,101257.88
2022-08-30T19:02:51.416Z,101255.03
2022-08-30T19:05:53.894Z,101250.84
2022-08-30T19:08:56.927Z,101256.16
2022-08-30T19:12:02.435Z,101256.44
2022-08-30T19:15:10.834Z,101255.88
2022-08-30T19:18:17.121Z,101256.91
2022-08-30T19:21:21.068Z,101266.41
2022-08-30T19:24:23.623Z,101269.72
2022-08-30T19:27:37.382Z,101266.00
2022-08-30T19:30:41.305Z,101264.72
2022-08-30T19:33:46.040Z,101268.03
2022-08-30T19:36:48.642Z,101264.56
2022-08-30T19:39:51.078Z,101264.69
2022-08-30T19:42:55.670Z,101270.16
2022-08-30T19:46:00.103Z,101269.53
2022-08-30T19:49:04.219Z,101264.13
2022-08-30T19:52:07.815Z,101264.22
2022-08-30T19:55:11.303Z,101263.22
2022-08-30T19:58:15.705Z,101268.34
2022-08-30T20:01:32.974Z,101257.56
2022-08-30T20:04:36.276Z,101255.91
2022-08-30T20:07:44.583Z,101251.56
2022-08-30T20:10:47.759Z,101257.13
2022-08-30T20:13:51.712Z,101252.25
2022-08-30T20:16:54.509Z,101259.09
2022-08-30T20:19:59.808Z,101252.22
2022-08-30T20:23:02.337Z,101252.94
2022-08-30T20:26:05.410Z,101258.81
2022-08-30T20:29:09.620Z,101261.06
2022-08-30T20:32:12.101Z,101257.81
2022-08-30T20:35:16.685Z,101261.66
2022-08-30T20:38:21.742Z,101264.66
2022-08-30T20:41:24.998Z,101264.22
2022-08-30T20:44:29.887Z,101267.75
2022-08-30T20:47:33.011Z,101269.53
2022-08-30T20:50:35.502Z,101275.16
2022-08-30T20:53:38.753Z,101274.59
2022-08-30T20:56:41.766Z,101276.47
2022-08-30T20:59:45.563Z,101274.13
2022-08-30T21:02:48.584Z,101274.75
2022-08-30T21:05:51.796Z,101277.50
2022-08-30T21:08:54.576Z,101278.59
2022-08-30T21:11:57.138Z,101277.59
2022-08-30T21:15:15.339Z,101271.31
2022-08-30T21:18:25.803Z,101269.38
2022-08-30T21:21:30.381Z,101269.81
2022-08-30T21:24:32.850Z,101274.19
2022-08-30T21:27:35.576Z,101280.66
2022-08-30T21:30:39.453Z,101285.41
2022-08-30T21:33:42.697Z,101287.22
2022-08-30T21:36:47.281Z,101280.97
2022-08-30T21:39:50.396Z,101288.16
2022-08-30T21:42:52.998Z,101288.47
2022-08-30T21:45:56.821Z,101297.72
2022-08-30T21:49:01.620Z,101293.09
2022-08-30T21:52:04.622Z,101297.34
2022-08-30T21:55:07.782Z,101300.16
2022-08-30T21:58:10.456Z,101296.22
2022-08-30T22:01:17.415Z,101296.81
2022-08-30T22:04:24.337Z,101288.91
2022-08-30T22:07:28.753Z,101293.50
2022-08-30T22:10:33.148Z,101294.22
2022-08-30T22:13:36.073Z,101290.38
2022-08-30T22:16:41.499Z,101291.59
2022-08-30T22:19:46.669Z,101282.69
2022-08-30T22:22:49.106Z,101288.22
2022-08-30T22:25:52.099Z,101286.91
2022-08-30T22:28:55.498Z,101292.28
2022-08-30T22:31:59.691Z,101292.56
2022-08-30T22:35:02.239Z,101290.50
2022-08-30T22:38:04.847Z,101297.81
2022-08-30T22:41:10.502Z,101294.13
2022-08-30T22:44:13.243Z,101296.81
2022-08-30T22:47:17.023Z,101295.97
2022-08-30T22:50:19.689Z,101290.72
2022-08-30T22:53:22.308Z,101287.13
2022-08-30T22:56:26.566Z,101287.06
2022-08-30T22:59:31.386Z,101292.97
2022-08-30T23:02:36.402Z,101298.13
2022-08-30T23:05:39.309Z,101297.31
2022-08-30T23:08:41.769Z,101307.59
2022-08-30T23:11:44.255Z,101304.13
2022-08-30T23:14:46.730Z,101313.09
2022-08-30T23:17:50.884Z,101318.75
2022-08-30T23:20:53.380Z,101315.25
2022-08-30T23:24:15.357Z,101319.09
2022-08-30T23:27:35.822Z,101316.47
2022-08-30T23:30:56.410Z,101317.91
2022-08-30T23:34:18.602Z,101326.56
2022-08-30T23:37:38.931Z,101317.31
2022-08-30T23:40:58.787Z,101316.28
2022-08-30T23:44:18.691Z,101319.41
2022-08-30T23:47:39.125Z,101318.66
2022-08-30T23:51:00.967Z,101318.41
2022-08-30T23:54:21.509Z,101313.16
2022-08-30T23:57:41.364Z,101324.75
